sensor_id;sensor_type;location;lat;lon;timestamp;P1;durP1;ratioP1;P2;durP2;ratioP2
2404;SDS011;1213;43.206;27.922;2023-12-20T00:01:02;34.17;;;18.07;;
2404;SDS011;1213;43.206;27.922;2023-12-20T00:03:27;34.20;;;22.90;;
2404;SDS011;1213;43.206;27.922;2023-12-20T00:05:52;30.60;;;18.77;;
2404;SDS011;1213;43.206;27.922;2023-12-20T00:08:17;39.13;;;26.03;;
2404;SDS011;1213;43.206;27.922;2023-12-20T00:10:43;43.10;;;24.17;;
2404;SDS011;1213;43.206;27.922;2023-12-20T00:13:08;25.87;;;16.50;;
2404;SDS011;1213;43.206;27.922;2023-12-20T00:15:34;42.80;;;27.10;;
2404;SDS011;1213;43.206;27.922;2023-12-20T00:17:59;43.40;;;26.77;;
2404;SDS011;1213;43.206;27.922;2023-12-20T00:20:25;45.77;;;27.27;;
2404;SDS011;1213;43.206;27.922;2023-12-20T00:22:51;42.23;;;25.63;;
2404;SDS011;1213;43.206;27.922;2023-12-20T00:25:16;44.03;;;25.17;;
2404;SDS011;1213;43.206;27.922;2023-12-20T00:27:41;40.43;;;22.93;;
2404;SDS011;1213;43.206;27.922;2023-12-20T00:30:07;17.93;;;12.17;;
2404;SDS011;1213;43.206;27.922;2023-12-20T00:32:32;26.83;;;18.50;;
2404;SDS011;1213;43.206;27.922;2023-12-20T00:34:58;32.07;;;21.07;;
2404;SDS011;1213;43.206;27.922;2023-12-20T00:37:23;36.20;;;20.03;;
2404;SDS011;1213;43.206;27.922;2023-12-20T00:39:49;33.57;;;18.40;;
2404;SDS011;1213;43.206;27.922;2023-12-20T00:42:14;31.17;;;20.03;;
2404;SDS011;1213;43.206;27.922;2023-12-20T00:44:39;32.93;;;20.10;;
2404;SDS011;1213;43.206;27.922;2023-12-20T00:47:05;25.80;;;14.43;;
2404;SDS011;1213;43.206;27.922;2023-12-20T00:49:30;26.23;;;19.60;;
2404;SDS011;1213;43.206;27.922;2023-12-20T00:51:55;27.97;;;18.57;;
2404;SDS011;1213;43.206;27.922;2023-12-20T00:54:21;32.33;;;19.17;;
2404;SDS011;1213;43.206;27.922;2023-12-20T00:56:46;35.87;;;21.00;;
2404;SDS011;1213;43.206;27.922;2023-12-20T00:59:11;26.43;;;17.47;;
2404;SDS011;1213;43.206;27.922;2023-12-20T01:01:36;35.77;;;19.47;;
2404;SDS011;1213;43.206;27.922;2023-12-20T01:04:02;43.17;;;21.73;;
2404;SDS011;1213;43.206;27.922;2023-12-20T01:06:27;29.83;;;21.10;;
2404;SDS011;1213;43.206;27.922;2023-12-20T01:08:53;34.87;;;20.10;;
2404;SDS011;1213;43.206;27.922;2023-12-20T01:11:18;36.90;;;20.23;;
2404;SDS011;1213;43.206;27.922;2023-12-20T01:13:43;35.23;;;20.70;;
2404;SDS011;1213;43.206;27.922;2023-12-20T01:16:10;35.13;;;20.10;;
2404;SDS011;1213;43.206;27.922;2023-12-20T01:18:35;28.27;;;17.77;;
2404;SDS011;1213;43.206;27.922;2023-12-20T01:21:01;26.47;;;18.77;;
2404;SDS011;1213;43.206;27.922;2023-12-20T01:23:27;30.50;;;18.10;;
2404;SDS011;1213;43.206;27.922;2023-12-20T01:25:52;9.27;;;6.73;;
2404;SDS011;1213;43.206;27.922;2023-12-20T01:28:17;22.27;;;16.07;;
2404;SDS011;1213;43.206;27.922;2023-12-20T01:30:43;32.40;;;17.83;;
2404;SDS011;1213;43.206;27.922;2023-12-20T01:33:08;29.03;;;18.33;;
2404;SDS011;1213;43.206;27.922;2023-12-20T01:35:33;28.67;;;18.13;;
2404;SDS011;1213;43.206;27.922;2023-12-20T01:37:58;36.67;;;20.50;;
2404;SDS011;1213;43.206;27.922;2023-12-20T01:40:24;28.73;;;17.90;;
2404;SDS011;1213;43.206;27.922;2023-12-20T01:43:04;30.60;;;17.40;;
2404;SDS011;1213;43.206;27.922;2023-12-20T01:45:30;28.13;;;18.53;;
2404;SDS011;1213;43.206;27.922;2023-12-20T01:47:55;26.10;;;19.47;;
2404;SDS011;1213;43.206;27.922;2023-12-20T01:50:21;31.97;;;16.87;;
2404;SDS011;1213;43.206;27.922;2023-12-20T01:52:46;29.97;;;20.50;;
2404;SDS011;1213;43.206;27.922;2023-12-20T01:55:12;27.20;;;18.63;;
2404;SDS011;1213;43.206;27.922;2023-12-20T01:57:40;29.40;;;18.73;;
2404;SDS011;1213;43.206;27.922;2023-12-20T02:00:06;38.87;;;21.23;;
2404;SDS011;1213;43.206;27.922;2023-12-20T02:02:32;31.10;;;19.97;;
2404;SDS011;1213;43.206;27.922;2023-12-20T02:04:58;32.23;;;21.70;;
2404;SDS011;1213;43.206;27.922;2023-12-20T02:07:23;41.20;;;26.60;;
2404;SDS011;1213;43.206;27.922;2023-12-20T02:09:49;43.93;;;28.50;;
2404;SDS011;1213;43.206;27.922;2023-12-20T02:12:14;48.20;;;31.47;;
2404;SDS011;1213;43.206;27.922;2023-12-20T02:14:39;47.73;;;32.07;;
2404;SDS011;1213;43.206;27.922;2023-12-20T02:17:05;39.33;;;25.57;;
2404;SDS011;1213;43.206;27.922;2023-12-20T02:19:30;54.37;;;33.10;;
2404;SDS011;1213;43.206;27.922;2023-12-20T02:22:09;49.60;;;30.47;;
2404;SDS011;1213;43.206;27.922;2023-12-20T02:24:35;46.50;;;27.00;;
2404;SDS011;1213;43.206;27.922;2023-12-20T02:27:00;65.30;;;29.33;;
2404;SDS011;1213;43.206;27.922;2023-12-20T02:29:25;47.03;;;31.37;;
2404;SDS011;1213;43.206;27.922;2023-12-20T02:31:51;35.13;;;21.63;;
2404;SDS011;1213;43.206;27.922;2023-12-20T02:34:16;37.17;;;26.43;;
2404;SDS011;1213;43.206;27.922;2023-12-20T02:36:42;48.33;;;28.30;;
2404;SDS011;1213;43.206;27.922;2023-12-20T02:39:07;41.90;;;26.77;;
2404;SDS011;1213;43.206;27.922;2023-12-20T02:41:33;41.37;;;28.17;;
2404;SDS011;1213;43.206;27.922;2023-12-20T02:43:58;33.47;;;25.37;;
2404;SDS011;1213;43.206;27.922;2023-12-20T02:46:23;39.57;;;23.13;;
2404;SDS011;1213;43.206;27.922;2023-12-20T02:48:49;44.77;;;25.23;;
2404;SDS011;1213;43.206;27.922;2023-12-20T02:51:14;34.63;;;23.70;;
2404;SDS011;1213;43.206;27.922;2023-12-20T02:53:39;38.40;;;24.73;;
2404;SDS011;1213;43.206;27.922;2023-12-20T02:56:04;37.10;;;23.07;;
2404;SDS011;1213;43.206;27.922;2023-12-20T02:58:30;36.30;;;23.60;;
2404;SDS011;1213;43.206;27.922;2023-12-20T03:00:55;34.77;;;21.67;;
2404;SDS011;1213;43.206;27.922;2023-12-20T03:03:20;36.40;;;24.83;;
2404;SDS011;1213;43.206;27.922;2023-12-20T03:05:45;32.47;;;23.30;;
2404;SDS011;1213;43.206;27.922;2023-12-20T03:08:11;37.23;;;22.30;;
2404;SDS011;1213;43.206;27.922;2023-12-20T03:10:36;33.63;;;21.57;;
2404;SDS011;1213;43.206;27.922;2023-12-20T03:13:02;34.60;;;24.07;;
2404;SDS011;1213;43.206;27.922;2023-12-20T03:15:27;39.83;;;22.30;;
2404;SDS011;1213;43.206;27.922;2023-12-20T03:17:52;42.90;;;22.50;;
2404;SDS011;1213;43.206;27.922;2023-12-20T03:20:18;34.70;;;22.07;;
2404;SDS011;1213;43.206;27.922;2023-12-20T03:22:43;32.43;;;22.87;;
2404;SDS011;1213;43.206;27.922;2023-12-20T03:25:08;34.43;;;21.80;;
2404;SDS011;1213;43.206;27.922;2023-12-20T03:27:33;38.07;;;23.03;;
2404;SDS011;1213;43.206;27.922;2023-12-20T03:29:59;32.37;;;21.23;;
2404;SDS011;1213;43.206;27.922;2023-12-20T03:32:24;35.73;;;23.57;;
2404;SDS011;1213;43.206;27.922;2023-12-20T03:34:49;48.23;;;29.37;;
2404;SDS011;1213;43.206;27.922;2023-12-20T03:37:14;46.37;;;30.77;;
2404;SDS011;1213;43.206;27.922;2023-12-20T03:39:39;36.10;;;23.33;;
2404;SDS011;1213;43.206;27.922;2023-12-20T03:42:05;41.77;;;25.00;;
2404;SDS011;1213;43.206;27.922;2023-12-20T03:44:30;43.13;;;26.90;;
2404;SDS011;1213;43.206;27.922;2023-12-20T03:46:55;45.00;;;28.57;;
2404;SDS011;1213;43.206;27.922;2023-12-20T03:49:21;50.23;;;31.13;;
2404;SDS011;1213;43.206;27.922;2023-12-20T03:51:46;48.50;;;28.50;;
2404;SDS011;1213;43.206;27.922;2023-12-20T03:54:12;53.33;;;36.70;;
2404;SDS011;1213;43.206;27.922;2023-12-20T03:56:37;69.80;;;41.87;;
2404;SDS011;1213;43.206;27.922;2023-12-20T03:59:02;68.07;;;39.90;;
2404;SDS011;1213;43.206;27.922;2023-12-20T04:01:27;69.03;;;42.40;;
2404;SDS011;1213;43.206;27.922;2023-12-20T04:03:53;73.77;;;48.13;;
2404;SDS011;1213;43.206;27.922;2023-12-20T04:06:18;89.20;;;53.70;;
2404;SDS011;1213;43.206;27.922;2023-12-20T04:08:43;86.37;;;51.07;;
2404;SDS011;1213;43.206;27.922;2023-12-20T04:11:09;96.07;;;57.47;;
2404;SDS011;1213;43.206;27.922;2023-12-20T04:13:34;65.77;;;41.77;;
2404;SDS011;1213;43.206;27.922;2023-12-20T04:15:59;77.67;;;48.40;;
2404;SDS011;1213;43.206;27.922;2023-12-20T04:18:24;100.00;;;56.90;;
2404;SDS011;1213;43.206;27.922;2023-12-20T04:20:50;82.53;;;49.33;;
2404;SDS011;1213;43.206;27.922;2023-12-20T04:23:16;74.70;;;48.27;;
2404;SDS011;1213;43.206;27.922;2023-12-20T04:25:41;67.50;;;39.37;;
2404;SDS011;1213;43.206;27.922;2023-12-20T04:28:07;79.23;;;47.83;;
2404;SDS011;1213;43.206;27.922;2023-12-20T04:30:32;87.93;;;48.30;;
2404;SDS011;1213;43.206;27.922;2023-12-20T04:32:57;106.20;;;56.17;;
2404;SDS011;1213;43.206;27.922;2023-12-20T04:35:22;90.93;;;51.70;;
2404;SDS011;1213;43.206;27.922;2023-12-20T04:37:48;96.70;;;58.10;;
2404;SDS011;1213;43.206;27.922;2023-12-20T04:40:14;99.27;;;57.47;;
2404;SDS011;1213;43.206;27.922;2023-12-20T04:42:39;98.77;;;56.30;;
2404;SDS011;1213;43.206;27.922;2023-12-20T04:45:05;89.13;;;51.93;;
2404;SDS011;1213;43.206;27.922;2023-12-20T04:47:30;61.30;;;37.90;;
2404;SDS011;1213;43.206;27.922;2023-12-20T04:49:55;81.20;;;46.60;;
2404;SDS011;1213;43.206;27.922;2023-12-20T04:52:21;47.40;;;31.80;;
2404;SDS011;1213;43.206;27.922;2023-12-20T04:54:46;70.60;;;42.10;;
2404;SDS011;1213;43.206;27.922;2023-12-20T04:57:12;52.17;;;32.27;;
2404;SDS011;1213;43.206;27.922;2023-12-20T04:59:37;68.40;;;37.07;;
2404;SDS011;1213;43.206;27.922;2023-12-20T05:02:02;57.50;;;36.93;;
2404;SDS011;1213;43.206;27.922;2023-12-20T05:04:27;65.37;;;34.83;;
2404;SDS011;1213;43.206;27.922;2023-12-20T05:06:53;60.17;;;34.60;;
2404;SDS011;1213;43.206;27.922;2023-12-20T05:09:18;54.30;;;34.40;;
2404;SDS011;1213;43.206;27.922;2023-12-20T05:11:43;65.27;;;35.97;;
2404;SDS011;1213;43.206;27.922;2023-12-20T05:14:08;72.03;;;36.13;;
2404;SDS011;1213;43.206;27.922;2023-12-20T05:16:34;66.00;;;37.37;;
2404;SDS011;1213;43.206;27.922;2023-12-20T05:18:59;65.03;;;36.67;;
2404;SDS011;1213;43.206;27.922;2023-12-20T05:21:26;59.90;;;35.50;;
2404;SDS011;1213;43.206;27.922;2023-12-20T05:23:51;73.80;;;40.43;;
2404;SDS011;1213;43.206;27.922;2023-12-20T05:26:16;71.27;;;39.63;;
2404;SDS011;1213;43.206;27.922;2023-12-20T05:28:41;69.83;;;40.37;;
2404;SDS011;1213;43.206;27.922;2023-12-20T05:31:07;70.63;;;38.37;;
2404;SDS011;1213;43.206;27.922;2023-12-20T05:33:32;81.33;;;44.77;;
2404;SDS011;1213;43.206;27.922;2023-12-20T05:35:57;67.57;;;41.17;;
2404;SDS011;1213;43.206;27.922;2023-12-20T05:38:23;74.13;;;41.37;;
2404;SDS011;1213;43.206;27.922;2023-12-20T05:40:48;80.47;;;41.70;;
2404;SDS011;1213;43.206;27.922;2023-12-20T05:43:13;73.20;;;42.47;;
2404;SDS011;1213;43.206;27.922;2023-12-20T05:45:39;74.50;;;41.33;;
2404;SDS011;1213;43.206;27.922;2023-12-20T05:48:04;74.20;;;40.30;;
2404;SDS011;1213;43.206;27.922;2023-12-20T05:50:29;88.00;;;43.60;;
2404;SDS011;1213;43.206;27.922;2023-12-20T05:52:54;84.30;;;43.80;;
2404;SDS011;1213;43.206;27.922;2023-12-20T05:55:20;88.13;;;43.57;;
2404;SDS011;1213;43.206;27.922;2023-12-20T05:57:45;73.53;;;41.47;;
2404;SDS011;1213;43.206;27.922;2023-12-20T06:00:10;71.37;;;43.03;;
2404;SDS011;1213;43.206;27.922;2023-12-20T06:02:36;77.33;;;44.80;;
2404;SDS011;1213;43.206;27.922;2023-12-20T06:05:02;81.70;;;45.00;;
2404;SDS011;1213;43.206;27.922;2023-12-20T06:07:27;82.80;;;45.43;;
2404;SDS011;1213;43.206;27.922;2023-12-20T06:09:53;75.67;;;42.90;;
2404;SDS011;1213;43.206;27.922;2023-12-20T06:12:18;101.17;;;50.80;;
2404;SDS011;1213;43.206;27.922;2023-12-20T06:14:43;90.27;;;48.97;;
2404;SDS011;1213;43.206;27.922;2023-12-20T06:17:09;97.77;;;45.37;;
2404;SDS011;1213;43.206;27.922;2023-12-20T06:19:34;86.87;;;45.53;;
2404;SDS011;1213;43.206;27.922;2023-12-20T06:21:59;72.90;;;44.23;;
2404;SDS011;1213;43.206;27.922;2023-12-20T06:24:24;86.17;;;46.77;;
2404;SDS011;1213;43.206;27.922;2023-12-20T06:26:53;82.10;;;46.57;;
2404;SDS011;1213;43.206;27.922;2023-12-20T06:29:18;80.57;;;44.67;;
2404;SDS011;1213;43.206;27.922;2023-12-20T06:31:43;87.77;;;45.87;;
2404;SDS011;1213;43.206;27.922;2023-12-20T06:34:09;88.00;;;50.43;;
2404;SDS011;1213;43.206;27.922;2023-12-20T06:36:35;79.50;;;36.80;;
2404;SDS011;1213;43.206;27.922;2023-12-20T06:39:00;95.63;;;52.23;;
2404;SDS011;1213;43.206;27.922;2023-12-20T06:41:26;100.17;;;51.23;;
2404;SDS011;1213;43.206;27.922;2023-12-20T06:43:51;95.03;;;55.23;;
2404;SDS011;1213;43.206;27.922;2023-12-20T06:46:18;96.50;;;55.27;;
2404;SDS011;1213;43.206;27.922;2023-12-20T06:48:43;100.33;;;52.60;;
2404;SDS011;1213;43.206;27.922;2023-12-20T06:51:10;89.20;;;52.97;;
2404;SDS011;1213;43.206;27.922;2023-12-20T06:53:36;92.70;;;54.03;;
2404;SDS011;1213;43.206;27.922;2023-12-20T06:56:01;104.13;;;52.70;;
2404;SDS011;1213;43.206;27.922;2023-12-20T06:58:27;97.07;;;54.37;;
2404;SDS011;1213;43.206;27.922;2023-12-20T07:00:52;109.07;;;53.20;;
2404;SDS011;1213;43.206;27.922;2023-12-20T07:03:18;91.93;;;53.10;;
2404;SDS011;1213;43.206;27.922;2023-12-20T07:05:43;99.57;;;52.43;;
2404;SDS011;1213;43.206;27.922;2023-12-20T07:08:08;102.27;;;54.70;;
2404;SDS011;1213;43.206;27.922;2023-12-20T07:10:34;111.77;;;56.40;;
2404;SDS011;1213;43.206;27.922;2023-12-20T07:12:59;96.30;;;51.33;;
2404;SDS011;1213;43.206;27.922;2023-12-20T07:15:24;101.63;;;58.97;;
2404;SDS011;1213;43.206;27.922;2023-12-20T07:17:49;111.90;;;64.27;;
2404;SDS011;1213;43.206;27.922;2023-12-20T07:20:15;117.77;;;70.47;;
2404;SDS011;1213;43.206;27.922;2023-12-20T07:22:40;127.00;;;70.23;;
2404;SDS011;1213;43.206;27.922;2023-12-20T07:25:05;130.70;;;68.43;;
2404;SDS011;1213;43.206;27.922;2023-12-20T07:27:31;138.70;;;73.30;;
2404;SDS011;1213;43.206;27.922;2023-12-20T07:29:56;123.40;;;72.70;;
2404;SDS011;1213;43.206;27.922;2023-12-20T07:32:21;112.13;;;69.20;;
2404;SDS011;1213;43.206;27.922;2023-12-20T07:34:47;123.83;;;68.80;;
2404;SDS011;1213;43.206;27.922;2023-12-20T07:37:12;117.73;;;66.50;;
2404;SDS011;1213;43.206;27.922;2023-12-20T07:39:39;110.80;;;65.43;;
2404;SDS011;1213;43.206;27.922;2023-12-20T07:42:05;112.37;;;63.87;;
2404;SDS011;1213;43.206;27.922;2023-12-20T07:44:30;97.13;;;58.63;;
2404;SDS011;1213;43.206;27.922;2023-12-20T07:46:56;69.27;;;44.87;;
2404;SDS011;1213;43.206;27.922;2023-12-20T07:49:22;76.07;;;44.20;;
2404;SDS011;1213;43.206;27.922;2023-12-20T07:51:48;57.97;;;37.87;;
2404;SDS011;1213;43.206;27.922;2023-12-20T07:54:13;49.83;;;35.27;;
2404;SDS011;1213;43.206;27.922;2023-12-20T07:56:38;55.23;;;35.73;;
2404;SDS011;1213;43.206;27.922;2023-12-20T07:59:05;48.70;;;29.50;;
2404;SDS011;1213;43.206;27.922;2023-12-20T08:01:30;43.97;;;29.30;;
2404;SDS011;1213;43.206;27.922;2023-12-20T08:03:55;39.10;;;26.03;;
2404;SDS011;1213;43.206;27.922;2023-12-20T08:06:22;47.47;;;29.37;;
2404;SDS011;1213;43.206;27.922;2023-12-20T08:08:47;39.40;;;26.17;;
2404;SDS011;1213;43.206;27.922;2023-12-20T08:11:12;35.43;;;20.90;;
2404;SDS011;1213;43.206;27.922;2023-12-20T08:13:37;40.53;;;24.03;;
2404;SDS011;1213;43.206;27.922;2023-12-20T08:16:03;36.93;;;24.10;;
2404;SDS011;1213;43.206;27.922;2023-12-20T08:18:29;34.57;;;23.73;;
2404;SDS011;1213;43.206;27.922;2023-12-20T08:20:54;38.13;;;26.03;;
2404;SDS011;1213;43.206;27.922;2023-12-20T08:23:19;48.03;;;28.57;;
2404;SDS011;1213;43.206;27.922;2023-12-20T08:25:46;41.80;;;28.30;;
2404;SDS011;1213;43.206;27.922;2023-12-20T08:28:11;35.10;;;22.73;;
2404;SDS011;1213;43.206;27.922;2023-12-20T08:30:36;29.40;;;23.10;;
2404;SDS011;1213;43.206;27.922;2023-12-20T08:33:02;33.20;;;24.17;;
2404;SDS011;1213;43.206;27.922;2023-12-20T08:35:27;28.93;;;20.30;;
2404;SDS011;1213;43.206;27.922;2023-12-20T08:37:52;30.60;;;19.80;;
2404;SDS011;1213;43.206;27.922;2023-12-20T08:40:18;25.83;;;16.93;;
2404;SDS011;1213;43.206;27.922;2023-12-20T08:42:43;19.13;;;13.57;;
2404;SDS011;1213;43.206;27.922;2023-12-20T08:45:09;24.10;;;13.40;;
2404;SDS011;1213;43.206;27.922;2023-12-20T08:47:34;15.23;;;12.40;;
2404;SDS011;1213;43.206;27.922;2023-12-20T08:49:59;16.13;;;11.37;;
2404;SDS011;1213;43.206;27.922;2023-12-20T08:52:28;17.87;;;12.07;;
2404;SDS011;1213;43.206;27.922;2023-12-20T08:54:54;25.47;;;13.30;;
2404;SDS011;1213;43.206;27.922;2023-12-20T08:57:19;19.73;;;11.07;;
2404;SDS011;1213;43.206;27.922;2023-12-20T08:59:45;13.07;;;10.50;;
2404;SDS011;1213;43.206;27.922;2023-12-20T09:02:10;20.17;;;15.53;;
2404;SDS011;1213;43.206;27.922;2023-12-20T09:04:36;12.90;;;11.50;;
2404;SDS011;1213;43.206;27.922;2023-12-20T09:07:01;19.93;;;9.37;;
2404;SDS011;1213;43.206;27.922;2023-12-20T09:09:26;15.23;;;9.27;;
2404;SDS011;1213;43.206;27.922;2023-12-20T09:11:52;22.17;;;10.60;;
2404;SDS011;1213;43.206;27.922;2023-12-20T09:14:17;15.80;;;9.43;;
2404;SDS011;1213;43.206;27.922;2023-12-20T09:16:42;11.93;;;9.23;;
2404;SDS011;1213;43.206;27.922;2023-12-20T09:19:07;12.27;;;9.60;;
2404;SDS011;1213;43.206;27.922;2023-12-20T09:21:32;12.23;;;9.20;;
2404;SDS011;1213;43.206;27.922;2023-12-20T09:23:58;14.50;;;8.77;;
2404;SDS011;1213;43.206;27.922;2023-12-20T09:26:23;12.33;;;10.00;;
2404;SDS011;1213;43.206;27.922;2023-12-20T09:28:49;14.03;;;11.60;;
2404;SDS011;1213;43.206;27.922;2023-12-20T09:31:14;16.40;;;9.47;;
2404;SDS011;1213;43.206;27.922;2023-12-20T09:33:39;12.30;;;8.93;;
2404;SDS011;1213;43.206;27.922;2023-12-20T09:36:05;21.77;;;8.53;;
2404;SDS011;1213;43.206;27.922;2023-12-20T09:38:30;24.63;;;8.40;;
2404;SDS011;1213;43.206;27.922;2023-12-20T09:40:55;12.37;;;9.63;;
2404;SDS011;1213;43.206;27.922;2023-12-20T09:43:21;8.93;;;7.50;;
2404;SDS011;1213;43.206;27.922;2023-12-20T09:45:48;12.40;;;7.90;;
2404;SDS011;1213;43.206;27.922;2023-12-20T09:48:17;8.90;;;7.37;;
2404;SDS011;1213;43.206;27.922;2023-12-20T09:50:43;19.53;;;8.87;;
2404;SDS011;1213;43.206;27.922;2023-12-20T09:53:09;16.63;;;8.00;;
2404;SDS011;1213;43.206;27.922;2023-12-20T09:55:35;9.00;;;6.83;;
2404;SDS011;1213;43.206;27.922;2023-12-20T09:58:01;10.13;;;9.13;;
2404;SDS011;1213;43.206;27.922;2023-12-20T10:00:26;9.63;;;7.13;;
2404;SDS011;1213;43.206;27.922;2023-12-20T10:02:56;10.50;;;6.80;;
2404;SDS011;1213;43.206;27.922;2023-12-20T10:05:28;12.33;;;6.40;;
2404;SDS011;1213;43.206;27.922;2023-12-20T10:07:53;7.43;;;5.93;;
2404;SDS011;1213;43.206;27.922;2023-12-20T10:10:18;9.43;;;7.80;;
2404;SDS011;1213;43.206;27.922;2023-12-20T10:15:28;6.83;;;6.13;;
2404;SDS011;1213;43.206;27.922;2023-12-20T10:17:53;8.73;;;6.60;;
2404;SDS011;1213;43.206;27.922;2023-12-20T10:20:20;9.27;;;7.27;;
2404;SDS011;1213;43.206;27.922;2023-12-20T10:22:45;11.30;;;7.00;;
2404;SDS011;1213;43.206;27.922;2023-12-20T10:25:11;7.97;;;7.00;;
2404;SDS011;1213;43.206;27.922;2023-12-20T10:27:36;11.60;;;7.53;;
2404;SDS011;1213;43.206;27.922;2023-12-20T10:30:02;10.33;;;8.50;;
2404;SDS011;1213;43.206;27.922;2023-12-20T10:32:27;14.57;;;8.00;;
2404;SDS011;1213;43.206;27.922;2023-12-20T10:34:53;11.60;;;6.37;;
2404;SDS011;1213;43.206;27.922;2023-12-20T10:37:19;8.80;;;7.70;;
2404;SDS011;1213;43.206;27.922;2023-12-20T10:39:44;9.37;;;7.00;;
2404;SDS011;1213;43.206;27.922;2023-12-20T10:42:13;10.30;;;7.17;;
2404;SDS011;1213;43.206;27.922;2023-12-20T10:44:39;9.17;;;7.93;;
2404;SDS011;1213;43.206;27.922;2023-12-20T10:47:04;10.50;;;7.40;;
2404;SDS011;1213;43.206;27.922;2023-12-20T10:49:30;13.37;;;7.20;;
2404;SDS011;1213;43.206;27.922;2023-12-20T10:51:56;7.17;;;6.10;;
2404;SDS011;1213;43.206;27.922;2023-12-20T10:54:24;7.83;;;6.50;;
2404;SDS011;1213;43.206;27.922;2023-12-20T10:56:50;7.00;;;6.00;;
2404;SDS011;1213;43.206;27.922;2023-12-20T10:59:16;11.67;;;6.30;;
2404;SDS011;1213;43.206;27.922;2023-12-20T11:01:44;8.97;;;5.33;;
2404;SDS011;1213;43.206;27.922;2023-12-20T11:04:10;7.63;;;4.90;;
2404;SDS011;1213;43.206;27.922;2023-12-20T11:06:46;8.40;;;6.30;;
2404;SDS011;1213;43.206;27.922;2023-12-20T11:09:22;13.83;;;6.77;;
2404;SDS011;1213;43.206;27.922;2023-12-20T11:11:56;15.47;;;7.43;;
2404;SDS011;1213;43.206;27.922;2023-12-20T11:17:21;11.90;;;6.90;;
2404;SDS011;1213;43.206;27.922;2023-12-20T11:22:18;9.10;;;7.70;;
2404;SDS011;1213;43.206;27.922;2023-12-20T11:24:44;12.23;;;7.60;;
2404;SDS011;1213;43.206;27.922;2023-12-20T11:27:09;7.73;;;6.97;;
2404;SDS011;1213;43.206;27.922;2023-12-20T11:29:35;11.93;;;8.20;;
2404;SDS011;1213;43.206;27.922;2023-12-20T11:32:02;11.53;;;8.17;;
2404;SDS011;1213;43.206;27.922;2023-12-20T11:34:27;12.50;;;8.63;;
2404;SDS011;1213;43.206;27.922;2023-12-20T11:36:57;10.23;;;8.40;;
2404;SDS011;1213;43.206;27.922;2023-12-20T11:39:22;12.70;;;7.97;;
2404;SDS011;1213;43.206;27.922;2023-12-20T11:41:48;8.00;;;7.20;;
2404;SDS011;1213;43.206;27.922;2023-12-20T11:44:14;11.00;;;9.00;;
2404;SDS011;1213;43.206;27.922;2023-12-20T11:46:40;16.27;;;11.17;;
2404;SDS011;1213;43.206;27.922;2023-12-20T11:49:05;11.20;;;8.10;;
2404;SDS011;1213;43.206;27.922;2023-12-20T11:51:31;13.03;;;9.90;;
2404;SDS011;1213;43.206;27.922;2023-12-20T11:53:56;8.90;;;8.00;;
2404;SDS011;1213;43.206;27.922;2023-12-20T11:56:21;11.07;;;9.73;;
2404;SDS011;1213;43.206;27.922;2023-12-20T11:58:46;10.27;;;9.27;;
2404;SDS011;1213;43.206;27.922;2023-12-20T12:01:13;12.17;;;8.70;;
2404;SDS011;1213;43.206;27.922;2023-12-20T12:03:39;16.50;;;9.37;;
2404;SDS011;1213;43.206;27.922;2023-12-20T12:06:13;10.87;;;8.50;;
2404;SDS011;1213;43.206;27.922;2023-12-20T12:08:39;10.20;;;8.23;;
2404;SDS011;1213;43.206;27.922;2023-12-20T12:11:04;11.97;;;8.57;;
2404;SDS011;1213;43.206;27.922;2023-12-20T12:13:30;21.03;;;12.80;;
2404;SDS011;1213;43.206;27.922;2023-12-20T12:15:55;22.40;;;14.90;;
2404;SDS011;1213;43.206;27.922;2023-12-20T12:18:20;14.13;;;11.93;;
2404;SDS011;1213;43.206;27.922;2023-12-20T12:20:46;18.83;;;11.60;;
2404;SDS011;1213;43.206;27.922;2023-12-20T12:23:11;12.43;;;10.23;;
2404;SDS011;1213;43.206;27.922;2023-12-20T12:25:36;13.30;;;10.80;;
2404;SDS011;1213;43.206;27.922;2023-12-20T12:28:02;12.77;;;11.37;;
2404;SDS011;1213;43.206;27.922;2023-12-20T12:30:27;12.20;;;10.90;;
2404;SDS011;1213;43.206;27.922;2023-12-20T12:32:53;19.37;;;13.83;;
2404;SDS011;1213;43.206;27.922;2023-12-20T12:35:18;15.10;;;11.60;;
2404;SDS011;1213;43.206;27.922;2023-12-20T12:37:43;15.13;;;11.90;;
2404;SDS011;1213;43.206;27.922;2023-12-20T12:40:12;23.73;;;11.73;;
2404;SDS011;1213;43.206;27.922;2023-12-20T12:42:38;12.33;;;10.73;;
2404;SDS011;1213;43.206;27.922;2023-12-20T12:45:03;16.43;;;13.83;;
2404;SDS011;1213;43.206;27.922;2023-12-20T12:47:29;13.90;;;10.57;;
2404;SDS011;1213;43.206;27.922;2023-12-20T12:49:55;19.23;;;14.13;;
2404;SDS011;1213;43.206;27.922;2023-12-20T12:52:20;16.73;;;13.57;;
2404;SDS011;1213;43.206;27.922;2023-12-20T12:54:46;19.07;;;14.50;;
2404;SDS011;1213;43.206;27.922;2023-12-20T12:57:13;27.43;;;15.33;;
2404;SDS011;1213;43.206;27.922;2023-12-20T12:59:38;17.07;;;13.63;;
2404;SDS011;1213;43.206;27.922;2023-12-20T13:02:04;19.90;;;13.90;;
2404;SDS011;1213;43.206;27.922;2023-12-20T13:04:29;31.83;;;16.20;;
2404;SDS011;1213;43.206;27.922;2023-12-20T13:06:54;25.67;;;16.50;;
2404;SDS011;1213;43.206;27.922;2023-12-20T13:09:20;20.13;;;16.40;;
2404;SDS011;1213;43.206;27.922;2023-12-20T13:11:45;19.37;;;15.23;;
2404;SDS011;1213;43.206;27.922;2023-12-20T13:14:11;25.03;;;16.27;;
2404;SDS011;1213;43.206;27.922;2023-12-20T13:16:41;22.63;;;14.47;;
2404;SDS011;1213;43.206;27.922;2023-12-20T13:19:07;17.60;;;13.23;;
2404;SDS011;1213;43.206;27.922;2023-12-20T13:21:32;19.03;;;13.30;;
2404;SDS011;1213;43.206;27.922;2023-12-20T13:23:57;27.77;;;15.67;;
2404;SDS011;1213;43.206;27.922;2023-12-20T13:26:23;22.40;;;13.30;;
2404;SDS011;1213;43.206;27.922;2023-12-20T13:28:48;20.23;;;13.63;;
2404;SDS011;1213;43.206;27.922;2023-12-20T13:31:13;25.53;;;14.40;;
2404;SDS011;1213;43.206;27.922;2023-12-20T13:33:38;27.30;;;15.93;;
2404;SDS011;1213;43.206;27.922;2023-12-20T13:36:06;21.53;;;14.90;;
2404;SDS011;1213;43.206;27.922;2023-12-20T13:38:32;18.27;;;14.63;;
2404;SDS011;1213;43.206;27.922;2023-12-20T13:40:57;21.00;;;14.80;;
2404;SDS011;1213;43.206;27.922;2023-12-20T13:43:23;21.20;;;13.93;;
2404;SDS011;1213;43.206;27.922;2023-12-20T13:45:49;20.60;;;15.53;;
2404;SDS011;1213;43.206;27.922;2023-12-20T13:48:14;20.83;;;14.70;;
2404;SDS011;1213;43.206;27.922;2023-12-20T13:50:40;28.70;;;14.67;;
2404;SDS011;1213;43.206;27.922;2023-12-20T13:53:05;19.17;;;15.30;;
2404;SDS011;1213;43.206;27.922;2023-12-20T13:55:30;20.50;;;16.17;;
2404;SDS011;1213;43.206;27.922;2023-12-20T13:57:56;18.73;;;14.80;;
2404;SDS011;1213;43.206;27.922;2023-12-20T14:00:21;23.97;;;14.90;;
2404;SDS011;1213;43.206;27.922;2023-12-20T14:02:47;27.00;;;16.30;;
2404;SDS011;1213;43.206;27.922;2023-12-20T14:05:12;25.10;;;15.03;;
2404;SDS011;1213;43.206;27.922;2023-12-20T14:07:39;40.37;;;28.70;;
2404;SDS011;1213;43.206;27.922;2023-12-20T14:10:05;32.17;;;22.07;;
2404;SDS011;1213;43.206;27.922;2023-12-20T14:12:30;26.43;;;18.63;;
2404;SDS011;1213;43.206;27.922;2023-12-20T14:14:57;21.90;;;15.47;;
2404;SDS011;1213;43.206;27.922;2023-12-20T14:17:22;24.10;;;17.17;;
2404;SDS011;1213;43.206;27.922;2023-12-20T14:19:47;26.33;;;17.70;;
2404;SDS011;1213;43.206;27.922;2023-12-20T14:22:13;27.10;;;19.10;;
2404;SDS011;1213;43.206;27.922;2023-12-20T14:24:41;33.83;;;21.40;;
2404;SDS011;1213;43.206;27.922;2023-12-20T14:27:07;29.23;;;19.03;;
2404;SDS011;1213;43.206;27.922;2023-12-20T14:29:33;26.70;;;17.20;;
2404;SDS011;1213;43.206;27.922;2023-12-20T14:31:59;26.60;;;18.13;;
2404;SDS011;1213;43.206;27.922;2023-12-20T14:34:26;27.67;;;18.37;;
2404;SDS011;1213;43.206;27.922;2023-12-20T14:36:51;25.70;;;17.60;;